createdAt,value
2023-04-17T00:01:05.863Z,5.80
2023-04-17T00:07:17.768Z,3.65
2023-04-17T00:10:24.968Z,5.68
2023-04-17T00:13:31.655Z,4.40
2023-04-17T00:16:39.481Z,5.53
2023-04-17T00:19:50.258Z,6.63
2023-04-17T00:22:56.790Z,3.88
2023-04-17T00:26:03.403Z,4.35
2023-04-17T00:29:10.237Z,6.32
2023-04-17T00:32:16.948Z,5.30
2023-04-17T00:35:21.124Z,10.70
2023-04-17T00:38:25.692Z,11.52
2023-04-17T00:41:30.229Z,7.70
2023-04-17T00:44:34.443Z,6.47
2023-04-17T00:47:39.735Z,9.02
2023-04-17T00:50:47.494Z,6.40
2023-04-17T00:53:51.486Z,7.53
2023-04-17T00:56:57.452Z,7.25
2023-04-17T01:00:02.636Z,7.32
2023-04-17T01:03:07.475Z,7.10
2023-04-17T01:06:13.297Z,5.57
2023-04-17T01:09:20.865Z,11.63
2023-04-17T01:12:25.914Z,4.75
2023-04-17T01:15:31.453Z,5.85
2023-04-17T01:18:34.560Z,3.88
2023-04-17T01:21:38.747Z,4.93
2023-04-17T01:24:43.094Z,3.47
2023-04-17T01:27:47.613Z,2.35
2023-04-17T01:30:51.372Z,2.78
2023-04-17T01:33:55.932Z,3.03
2023-04-17T01:36:59.950Z,4.40
2023-04-17T01:40:07.980Z,2.75
2023-04-17T01:43:11.996Z,2.55
2023-04-17T01:46:16.414Z,3.63
2023-04-17T01:49:20.978Z,2.55
2023-04-17T01:52:24.458Z,3.40
2023-04-17T01:55:28.355Z,2.00
2023-04-17T01:58:32.444Z,3.30
2023-04-17T02:01:37.943Z,7.47
2023-04-17T02:04:45.978Z,5.82
2023-04-17T02:07:52.573Z,4.38
2023-04-17T02:10:57.528Z,6.28
2023-04-17T02:14:01.285Z,3.72
2023-04-17T02:17:06.362Z,4.10
2023-04-17T02:20:12.123Z,2.88
2023-04-17T02:23:16.564Z,6.45
2023-04-17T02:26:19.864Z,2.80
2023-04-17T02:29:23.557Z,4.38
2023-04-17T02:32:27.291Z,2.92
2023-04-17T02:35:34.140Z,2.58
2023-04-17T02:38:39.082Z,2.17
2023-04-17T02:41:46.978Z,6.05
2023-04-17T02:44:53.330Z,2.20
2023-04-17T02:47:58.108Z,4.80
2023-04-17T02:51:02.410Z,5.60
2023-04-17T02:57:27.051Z,3.92
2023-04-17T03:00:30.850Z,2.53
2023-04-17T03:03:36.382Z,2.28
2023-04-17T03:06:43.122Z,3.28
2023-04-17T03:09:48.206Z,1.58
2023-04-17T03:13:04.010Z,2.42
2023-04-17T03:19:15.300Z,1.75
2023-04-17T03:22:18.949Z,2.88
2023-04-17T03:25:24.849Z,5.93
2023-04-17T03:28:29.341Z,5.07
2023-04-17T03:31:34.246Z,2.95
2023-04-17T03:34:39.036Z,7.53
2023-04-17T03:37:43.807Z,3.63
2023-04-17T03:40:51.082Z,5.97
2023-04-17T03:43:56.227Z,5.90
2023-04-17T03:47:00.124Z,4.47
2023-04-17T03:50:04.235Z,1.60
2023-04-17T03:53:13.354Z,5.95
2023-04-17T03:56:19.000Z,3.70
2023-04-17T03:59:23.665Z,4.70
2023-04-17T04:02:29.817Z,3.75
2023-04-17T04:05:33.823Z,7.53
2023-04-17T04:08:37.519Z,3.50
2023-04-17T04:11:42.235Z,10.75
2023-04-17T04:14:46.548Z,7.65
2023-04-17T04:17:53.920Z,4.93
2023-04-17T04:20:58.153Z,6.80
2023-04-17T04:24:08.012Z,4.60
2023-04-17T04:27:17.872Z,3.90
2023-04-17T04:30:26.273Z,8.05
2023-04-17T04:33:50.241Z,7.25
2023-04-17T04:36:58.281Z,9.18
2023-04-17T04:40:13.776Z,5.43
2023-04-17T04:43:20.797Z,9.48
2023-04-17T04:46:30.346Z,6.30
2023-04-17T04:49:34.948Z,4.88
2023-04-17T04:52:38.948Z,6.90
2023-04-17T04:55:57.316Z,7.72
2023-04-17T04:59:02.902Z,9.35
2023-04-17T05:02:10.475Z,14.57
2023-04-17T05:05:15.065Z,6.15
2023-04-17T05:08:19.162Z,4.85
2023-04-17T05:11:31.870Z,7.70
2023-04-17T05:14:37.293Z,7.38
2023-04-17T05:17:44.266Z,4.57
2023-04-17T05:20:50.332Z,8.82
2023-04-17T05:23:55.504Z,5.85
2023-04-17T05:26:59.156Z,17.77
2023-04-17T05:30:03.251Z,2.13
2023-04-17T05:33:08.401Z,4.25
2023-04-17T05:36:23.314Z,1.98
2023-04-17T05:39:30.292Z,3.20
2023-04-17T05:42:36.320Z,2.10
2023-04-17T05:45:42.249Z,2.78
2023-04-17T05:48:47.038Z,3.05
2023-04-17T05:51:50.723Z,4.47
2023-04-17T05:54:55.531Z,1.10
2023-04-17T05:58:03.876Z,2.97
2023-04-17T06:01:13.812Z,3.45
2023-04-17T06:04:18.683Z,2.78
2023-04-17T06:07:24.410Z,3.40
2023-04-17T06:10:28.652Z,2.08
2023-04-17T06:13:34.022Z,2.30
2023-04-17T06:16:38.525Z,4.15
2023-04-17T06:19:45.999Z,1.73
2023-04-17T06:22:50.455Z,1.42
2023-04-17T06:25:55.014Z,3.08
2023-04-17T06:28:59.095Z,3.38
2023-04-17T06:32:06.077Z,2.05
2023-04-17T06:35:12.567Z,2.38
2023-04-17T06:38:35.428Z,3.88
2023-04-17T06:41:39.192Z,5.30
2023-04-17T06:44:47.045Z,2.10
2023-04-17T06:47:50.551Z,1.52
2023-04-17T06:50:54.676Z,2.58
2023-04-17T06:53:58.339Z,2.25
2023-04-17T06:57:04.219Z,3.30
2023-04-17T07:00:08.325Z,4.32
2023-04-17T07:03:14.618Z,1.50
2023-04-17T07:06:20.051Z,0.98
2023-04-17T07:09:24.362Z,2.25
2023-04-17T07:12:28.100Z,2.85
2023-04-17T07:15:32.595Z,2.42
2023-04-17T07:18:36.107Z,2.90
2023-04-17T07:21:39.950Z,4.72
2023-04-17T07:24:44.443Z,4.82
2023-04-17T07:27:49.087Z,3.08
2023-04-17T07:30:55.614Z,4.20
2023-04-17T07:34:00.376Z,2.15
2023-04-17T07:37:04.526Z,2.58
2023-04-17T07:40:10.675Z,2.88
2023-04-17T07:43:14.848Z,3.70
2023-04-17T07:46:18.836Z,7.18
2023-04-17T07:49:22.173Z,5.75
2023-04-17T07:52:27.014Z,2.83
2023-04-17T07:55:31.331Z,3.35
2023-04-17T07:58:36.679Z,4.25
2023-04-17T08:01:41.860Z,2.40
2023-04-17T08:04:45.513Z,3.40
2023-04-17T08:07:48.558Z,2.20
2023-04-17T08:10:53.487Z,4.85
2023-04-17T08:13:57.480Z,5.28
2023-04-17T08:17:01.503Z,3.97
2023-04-17T08:20:12.745Z,2.65
2023-04-17T08:23:16.607Z,5.18
2023-04-17T08:26:21.314Z,3.13
2023-04-17T08:29:25.835Z,2.50
2023-04-17T08:32:28.821Z,3.83
2023-04-17T08:35:32.254Z,4.20
2023-04-17T08:38:35.323Z,2.85
2023-04-17T08:41:53.425Z,3.45
2023-04-17T08:45:01.727Z,3.35
2023-04-17T08:48:06.905Z,8.63
2023-04-17T08:51:10.974Z,2.17
2023-04-17T08:54:14.338Z,2.63
2023-04-17T08:57:18.137Z,2.47
2023-04-17T09:00:28.436Z,2.78
2023-04-17T09:03:43.965Z,2.63
2023-04-17T09:06:54.802Z,6.05
2023-04-17T09:09:58.521Z,5.00
2023-04-17T09:13:02.330Z,3.53
2023-04-17T09:16:08.733Z,3.85
2023-04-17T09:19:13.208Z,3.63
2023-04-17T09:22:22.018Z,4.97
2023-04-17T09:25:27.778Z,3.85
2023-04-17T09:28:36.027Z,4.95
2023-04-17T09:31:41.351Z,7.32
2023-04-17T09:34:44.350Z,6.72
2023-04-17T09:37:55.595Z,5.00
2023-04-17T09:40:58.672Z,4.38
2023-04-17T09:44:06.077Z,2.67
2023-04-17T09:47:10.557Z,3.08
2023-04-17T09:50:18.755Z,2.78
2023-04-17T09:53:21.949Z,3.25
2023-04-17T09:56:27.651Z,6.18
2023-04-17T09:59:31.620Z,7.47
2023-04-17T10:02:35.902Z,4.45
2023-04-17T10:05:40.031Z,6.70
2023-04-17T10:08:43.948Z,3.95
2023-04-17T10:11:48.308Z,4.35
2023-04-17T10:14:53.394Z,2.35
2023-04-17T10:18:17.379Z,3.28
2023-04-17T10:21:23.308Z,2.15
2023-04-17T10:24:27.671Z,3.88
2023-04-17T10:27:33.360Z,3.53
2023-04-17T10:30:55.087Z,4.75
2023-04-17T10:33:59.293Z,2.28
2023-04-17T10:37:03.734Z,5.28
2023-04-17T10:40:12.927Z,1.23
2023-04-17T10:43:18.619Z,3.03
2023-04-17T10:46:27.835Z,3.05
2023-04-17T10:49:49.014Z,5.75
2023-04-17T10:52:52.975Z,2.03
2023-04-17T10:55:58.170Z,4.80
2023-04-17T10:59:15.235Z,3.53
2023-04-17T11:02:34.780Z,2.30
2023-04-17T11:05:48.549Z,6.82
2023-04-17T11:08:52.737Z,5.60
2023-04-17T11:12:00.510Z,5.28
2023-04-17T11:15:04.888Z,5.60
2023-04-17T11:18:08.953Z,5.30
2023-04-17T11:21:17.327Z,4.85
2023-04-17T11:24:36.932Z,5.00
2023-04-17T11:27:40.268Z,4.45
2023-04-17T11:30:45.845Z,5.88
2023-04-17T11:33:51.813Z,9.18
2023-04-17T11:37:01.641Z,3.75
2023-04-17T11:40:17.281Z,3.55
2023-04-17T11:46:54.270Z,4.68
2023-04-17T11:49:58.365Z,1.92
2023-04-17T11:53:04.196Z,2.28
2023-04-17T11:56:19.318Z,3.67
2023-04-17T11:59:38.396Z,3.55
2023-04-17T12:02:42.720Z,4.38
2023-04-17T12:06:02.947Z,7.72
2023-04-17T12:09:08.541Z,5.20
2023-04-17T12:12:13.068Z,7.95
2023-04-17T12:15:17.177Z,6.10
2023-04-17T12:18:21.113Z,7.18
2023-04-17T12:21:26.543Z,5.70
2023-04-17T12:24:35.978Z,2.80
2023-04-17T12:30:58.431Z,5.97
2023-04-17T12:34:03.554Z,5.32
2023-04-17T12:37:08.243Z,6.43
2023-04-17T12:40:14.788Z,3.40
2023-04-17T12:43:19.989Z,2.97
2023-04-17T12:46:25.296Z,5.43
2023-04-17T12:49:29.198Z,3.78
2023-04-17T12:52:33.566Z,4.57
2023-04-17T12:55:49.311Z,3.35
2023-04-17T12:58:52.599Z,4.28
2023-04-17T13:02:06.377Z,10.90
2023-04-17T13:05:14.205Z,2.20
2023-04-17T13:08:19.343Z,2.75
2023-04-17T13:11:23.560Z,3.20
2023-04-17T13:14:27.221Z,3.22
2023-04-17T13:17:31.037Z,4.43
2023-04-17T13:20:34.524Z,3.53
2023-04-17T13:23:37.596Z,5.05
2023-04-17T13:26:43.914Z,7.00
2023-04-17T13:29:48.337Z,8.75
2023-04-17T13:32:52.282Z,6.60
2023-04-17T13:35:56.213Z,4.15
2023-04-17T13:39:00.188Z,2.22
2023-04-17T13:42:04.045Z,4.40
2023-04-17T13:45:09.013Z,4.57
2023-04-17T13:48:12.753Z,4.55
2023-04-17T13:51:17.258Z,2.35
2023-04-17T14:01:39.493Z,4.25
2023-04-17T14:04:44.896Z,5.57
2023-04-17T14:07:48.861Z,7.50
2023-04-17T14:10:52.306Z,4.97
2023-04-17T14:13:56.592Z,5.88
2023-04-17T14:17:00.023Z,5.65
2023-04-17T14:20:04.163Z,5.50
2023-04-17T14:23:08.476Z,4.45
2023-04-17T14:26:12.792Z,5.63
2023-04-17T14:29:16.680Z,4.63
2023-04-17T14:32:20.424Z,4.85
2023-04-17T14:35:24.431Z,9.00
2023-04-17T14:38:27.459Z,6.97
2023-04-17T14:41:32.622Z,3.88
2023-04-17T14:44:36.409Z,3.17
2023-04-17T14:47:40.155Z,4.20
2023-04-17T14:50:44.056Z,2.63
2023-04-17T14:53:47.666Z,4.55
2023-04-17T14:56:51.404Z,5.55
2023-04-17T14:59:54.731Z,5.45
2023-04-17T15:02:59.423Z,3.60
2023-04-17T15:06:04.035Z,5.28
2023-04-17T15:09:07.926Z,2.67
2023-04-17T15:12:12.287Z,8.85
2023-04-17T15:15:20.515Z,6.55
2023-04-17T15:18:29.765Z,4.13
2023-04-17T15:21:37.249Z,7.97
2023-04-17T15:24:44.127Z,6.05
2023-04-17T15:27:50.298Z,6.00
2023-04-17T15:30:58.208Z,10.35
2023-04-17T15:34:03.965Z,15.15
2023-04-17T15:37:10.217Z,6.18
2023-04-17T15:40:16.170Z,8.55
2023-04-17T15:43:23.273Z,5.03
2023-04-17T15:46:31.966Z,7.65
2023-04-17T15:49:39.196Z,8.38
2023-04-17T15:52:45.865Z,9.10
2023-04-17T15:55:51.934Z,5.05
2023-04-17T15:58:58.500Z,12.25
2023-04-17T16:02:04.948Z,10.25
2023-04-17T16:05:11.849Z,9.80
2023-04-17T16:08:18.524Z,8.88
2023-04-17T16:11:25.203Z,8.63
2023-04-17T16:14:32.191Z,7.50
2023-04-17T16:17:38.357Z,7.30
2023-04-17T16:20:44.980Z,10.32
2023-04-17T16:23:51.197Z,9.48
2023-04-17T16:26:59.707Z,12.27
2023-04-17T16:30:06.384Z,11.50
2023-04-17T16:33:13.173Z,7.00
2023-04-17T16:36:19.733Z,2.93
2023-04-17T16:39:27.642Z,6.43
2023-04-17T16:42:35.265Z,6.78
2023-04-17T16:45:42.430Z,11.50
2023-04-17T16:48:49.522Z,12.10
2023-04-17T16:51:55.990Z,5.57
2023-04-17T16:55:02.454Z,10.70
2023-04-17T16:58:08.939Z,9.85
2023-04-17T17:01:15.792Z,6.70
2023-04-17T17:04:22.129Z,4.90
2023-04-17T17:07:28.876Z,4.43
2023-04-17T17:10:35.441Z,8.70
2023-04-17T17:13:42.123Z,7.25
2023-04-17T17:16:48.421Z,7.97
2023-04-17T17:19:55.165Z,5.03
2023-04-17T17:23:01.523Z,5.97
2023-04-17T17:26:08.524Z,5.67
2023-04-17T17:29:14.658Z,2.33
2023-04-17T17:32:22.039Z,2.87
2023-04-17T17:35:28.336Z,2.63
2023-04-17T17:38:34.614Z,8.10
2023-04-17T17:41:40.881Z,3.38
2023-04-17T17:44:48.195Z,5.57
2023-04-17T17:47:54.568Z,3.35
2023-04-17T17:51:00.910Z,2.30
2023-04-17T17:54:08.119Z,1.92
2023-04-17T17:57:16.932Z,2.75
2023-04-17T18:00:24.621Z,1.45
2023-04-17T18:03:33.186Z,1.52
2023-04-17T18:06:42.189Z,2.95
2023-04-17T18:09:50.701Z,1.08
2023-04-17T18:12:57.468Z,3.88
2023-04-17T18:16:07.809Z,5.33
2023-04-17T18:19:14.720Z,3.78
2023-04-17T18:22:22.927Z,3.57
2023-04-17T18:25:29.401Z,2.95
2023-04-17T18:28:38.543Z,5.63
2023-04-17T18:31:47.697Z,1.95
2023-04-17T18:34:57.413Z,4.43
2023-04-17T18:38:06.360Z,4.05
2023-04-17T18:41:15.584Z,6.22
2023-04-17T18:44:24.815Z,4.88
2023-04-17T18:47:34.575Z,4.38
2023-04-17T18:50:43.285Z,5.50
2023-04-17T18:53:53.757Z,5.30
2023-04-17T18:57:02.580Z,4.25
2023-04-17T19:00:12.838Z,4.68
2023-04-17T19:03:22.333Z,3.70
2023-04-17T19:06:33.166Z,3.70
2023-04-17T19:09:42.403Z,7.07
2023-04-17T19:12:52.565Z,4.13
2023-04-17T19:16:02.048Z,5.40
2023-04-17T19:19:13.757Z,4.68
2023-04-17T19:22:22.423Z,6.50
2023-04-17T19:25:31.854Z,3.97
2023-04-17T19:28:45.403Z,4.10
2023-04-17T19:31:54.778Z,4.15
2023-04-17T19:35:05.707Z,3.70
2023-04-17T19:38:17.219Z,2.60
2023-04-17T19:41:27.359Z,6.10
2023-04-17T19:44:36.687Z,4.05
2023-04-17T19:47:46.146Z,4.35
2023-04-17T19:50:55.689Z,3.67
2023-04-17T19:54:06.352Z,6.72
2023-04-17T19:57:18.665Z,5.45
2023-04-17T20:00:29.220Z,4.95
2023-04-17T20:03:40.368Z,4.82
2023-04-17T20:06:48.613Z,6.95
2023-04-17T20:09:57.033Z,5.55
2023-04-17T20:13:06.174Z,6.57
2023-04-17T20:16:15.219Z,6.65
2023-04-17T20:19:23.522Z,5.60
2023-04-17T20:22:33.382Z,5.00
2023-04-17T20:25:44.253Z,10.15
2023-04-17T20:28:53.692Z,14.75
2023-04-17T20:32:03.995Z,8.27
2023-04-17T20:35:14.726Z,5.18
2023-04-17T20:38:23.443Z,5.93
2023-04-17T20:41:31.982Z,7.45
2023-04-17T20:44:40.375Z,9.40
2023-04-17T20:51:05.333Z,8.93
2023-04-17T20:54:14.450Z,9.40
2023-04-17T20:57:24.610Z,6.50
2023-04-17T21:00:33.020Z,7.00
2023-04-17T21:03:43.266Z,4.00
2023-04-17T21:06:51.792Z,4.10
2023-04-17T21:10:00.735Z,3.75
2023-04-17T21:13:09.346Z,7.40
2023-04-17T21:16:19.876Z,4.45
2023-04-17T21:19:33.042Z,5.57
2023-04-17T21:22:43.206Z,8.05
2023-04-17T21:25:54.073Z,2.10
2023-04-17T21:29:03.114Z,6.07
2023-04-17T21:32:11.941Z,4.82
2023-04-17T21:35:21.485Z,3.38
2023-04-17T21:38:29.792Z,9.18
2023-04-17T21:41:38.923Z,4.95
2023-04-17T21:44:48.889Z,3.97
2023-04-17T21:47:58.576Z,3.53
2023-04-17T21:51:09.603Z,8.50
2023-04-17T21:54:19.159Z,5.80
2023-04-17T21:57:27.896Z,11.52
2023-04-17T22:00:37.225Z,10.25
2023-04-17T22:03:47.311Z,9.02
2023-04-17T22:06:52.785Z,6.57
2023-04-17T22:09:56.708Z,7.68
2023-04-17T22:12:59.697Z,18.90
2023-04-17T22:16:03.418Z,18.90
2023-04-17T22:19:06.497Z,25.35
2023-04-17T22:22:09.897Z,20.48
2023-04-17T22:25:13.135Z,25.15
2023-04-17T22:28:17.061Z,14.60
2023-04-17T22:31:21.675Z,11.43
2023-04-17T22:34:26.328Z,12.25
2023-04-17T22:37:29.427Z,7.45
2023-04-17T22:40:33.624Z,14.82
2023-04-17T22:43:37.914Z,16.80
2023-04-17T22:46:41.287Z,8.80
2023-04-17T22:49:45.158Z,12.70
2023-04-17T22:52:48.385Z,12.35
2023-04-17T22:56:03.413Z,10.52
2023-04-17T22:59:08.644Z,12.90
2023-04-17T23:02:13.318Z,9.23
2023-04-17T23:05:18.368Z,7.90
2023-04-17T23:08:23.246Z,14.27
2023-04-17T23:11:28.171Z,16.02
2023-04-17T23:14:33.107Z,14.18
2023-04-17T23:17:39.226Z,10.82
2023-04-17T23:20:44.405Z,16.25
2023-04-17T23:23:49.442Z,12.45
2023-04-17T23:26:56.453Z,10.20
2023-04-17T23:30:02.280Z,24.80
2023-04-17T23:33:07.515Z,16.92
2023-04-17T23:36:12.476Z,16.10
2023-04-17T23:39:17.504Z,13.63
2023-04-17T23:42:23.151Z,15.25
2023-04-17T23:45:28.606Z,16.08
2023-04-17T23:48:33.752Z,21.70
2023-04-17T23:51:38.876Z,17.25
2023-04-17T23:54:43.516Z,20.10
2023-04-17T23:57:48.451Z,18.48
